Aviation Digital Data Service (ADDS)

Output produced by METARs form (1103 UTC 30 April 2017)
found at http://www.aviationweather.gov/adds/metars/
 
EGYP 301050Z 23020KT 9999 BKN025 06/02 Q0999 BLU
TAF EGYP 301000Z 3012/0106 21018G28KT 9999 FEW020 SCT040 
     TEMPO 3012/3021 SCT020 
     BECMG 3015/3018 VRB05KT 
     BECMG 0103/0106 01015KT